createdAt,value
2022-12-31T00:01:28.637Z,83.55
2022-12-31T00:03:57.044Z,80.75
2022-12-31T00:06:27.390Z,79.55
2022-12-31T00:08:56.958Z,84.80
2022-12-31T00:11:26.562Z,97.38
2022-12-31T00:13:56.455Z,95.28
2022-12-31T00:16:25.666Z,93.68
2022-12-31T00:18:56.541Z,91.25
2022-12-31T00:21:24.379Z,71.82
2022-12-31T00:23:52.968Z,73.63
2022-12-31T00:26:25.151Z,74.55
2022-12-31T00:28:54.594Z,70.68
2022-12-31T00:31:27.927Z,73.03
2022-12-31T00:33:57.008Z,71.25
2022-12-31T00:36:30.209Z,83.00
2022-12-31T00:39:01.826Z,88.53
2022-12-31T00:41:29.616Z,85.35
2022-12-31T00:43:57.206Z,89.10
2022-12-31T00:46:25.203Z,90.75
2022-12-31T00:48:53.200Z,86.72
2022-12-31T00:51:23.907Z,89.32
2022-12-31T00:53:51.390Z,85.07
2022-12-31T00:56:21.481Z,84.30
2022-12-31T00:58:50.014Z,85.00
2022-12-31T01:01:25.486Z,85.22
2022-12-31T01:03:55.718Z,81.60
2022-12-31T01:06:23.836Z,77.70
2022-12-31T01:08:53.962Z,74.95
2022-12-31T01:11:22.720Z,77.25
2022-12-31T01:14:00.905Z,77.50
2022-12-31T01:16:32.429Z,80.22
2022-12-31T01:19:02.525Z,85.78
2022-12-31T01:21:31.781Z,84.45
2022-12-31T01:24:00.240Z,96.05
2022-12-31T01:26:28.375Z,83.78
2022-12-31T01:28:56.136Z,86.15
2022-12-31T01:31:24.980Z,75.72
2022-12-31T01:33:52.998Z,76.65
2022-12-31T01:36:26.261Z,71.95
2022-12-31T01:38:55.741Z,65.70
2022-12-31T01:41:33.019Z,66.28
2022-12-31T01:44:03.435Z,63.08
2022-12-31T01:46:54.912Z,64.53
2022-12-31T01:49:54.272Z,63.78
2022-12-31T01:52:32.670Z,64.28
2022-12-31T01:55:06.099Z,67.25
2022-12-31T01:57:35.030Z,70.03
2022-12-31T02:00:04.921Z,72.40
2022-12-31T02:02:32.856Z,66.57
2022-12-31T02:05:05.702Z,64.53
2022-12-31T02:07:33.233Z,65.57
2022-12-31T02:10:01.843Z,63.60
2022-12-31T02:12:29.552Z,63.30
2022-12-31T02:14:57.337Z,62.72
2022-12-31T02:17:43.410Z,62.88
2022-12-31T02:20:29.322Z,58.75
2022-12-31T02:22:56.762Z,60.00
2022-12-31T02:25:27.299Z,63.30
2022-12-31T02:28:27.998Z,61.17
2022-12-31T02:31:16.960Z,62.83
2022-12-31T02:34:09.045Z,58.80
2022-12-31T02:36:40.753Z,60.75
2022-12-31T02:39:10.112Z,59.92
2022-12-31T02:41:49.983Z,63.38
2022-12-31T02:44:20.495Z,57.00
2022-12-31T02:47:08.216Z,55.50
2022-12-31T02:50:05.141Z,60.50
2022-12-31T02:53:06.773Z,59.28
2022-12-31T02:55:55.421Z,59.63
2022-12-31T02:59:01.526Z,60.55
2022-12-31T03:01:53.907Z,59.50
2022-12-31T03:04:32.297Z,61.10
2022-12-31T03:07:05.866Z,64.70
2022-12-31T03:09:35.349Z,61.40
2022-12-31T03:12:23.984Z,58.97
2022-12-31T03:14:51.718Z,64.32
2022-12-31T03:17:19.633Z,64.28
2022-12-31T03:20:05.907Z,61.35
2022-12-31T03:22:36.475Z,60.42
2022-12-31T03:25:25.736Z,60.22
2022-12-31T03:27:54.056Z,60.90
2022-12-31T03:30:23.349Z,61.05
2022-12-31T03:32:51.595Z,59.30
2022-12-31T03:35:20.645Z,59.92
2022-12-31T03:37:49.390Z,60.22
2022-12-31T03:40:18.345Z,62.60
2022-12-31T03:42:46.534Z,63.95
2022-12-31T03:45:14.317Z,67.35
2022-12-31T03:47:41.900Z,61.92
2022-12-31T03:50:12.395Z,67.00
2022-12-31T03:52:39.929Z,63.15
2022-12-31T03:55:08.750Z,71.43
2022-12-31T03:57:36.788Z,113.00
2022-12-31T04:00:10.878Z,87.88
2022-12-31T04:02:38.780Z,87.90
2022-12-31T04:05:06.999Z,89.43
2022-12-31T04:07:34.680Z,78.10
2022-12-31T04:10:04.392Z,70.50
2022-12-31T04:12:32.663Z,70.10
2022-12-31T04:15:00.468Z,70.70
2022-12-31T04:17:27.989Z,66.60
2022-12-31T04:19:56.366Z,68.10
2022-12-31T04:22:23.887Z,71.05
2022-12-31T04:24:51.528Z,108.80
2022-12-31T04:27:19.106Z,77.97
2022-12-31T04:29:46.773Z,73.93
2022-12-31T04:32:14.365Z,64.57
2022-12-31T04:34:43.013Z,73.10
2022-12-31T04:37:10.568Z,70.10
2022-12-31T04:39:39.253Z,80.53
2022-12-31T04:42:06.807Z,99.15
2022-12-31T04:44:35.136Z,94.25
2022-12-31T04:47:02.690Z,80.47
2022-12-31T04:49:30.428Z,76.82
2022-12-31T04:51:57.857Z,80.15
2022-12-31T04:54:25.311Z,74.75
2022-12-31T04:56:52.864Z,64.10
2022-12-31T04:59:20.498Z,70.90
2022-12-31T05:01:48.149Z,74.97
2022-12-31T05:04:15.680Z,74.85
2022-12-31T05:06:43.266Z,72.47
2022-12-31T05:09:10.985Z,68.00
2022-12-31T05:11:39.355Z,65.68
2022-12-31T05:14:06.918Z,71.82
2022-12-31T05:16:34.520Z,71.50
2022-12-31T05:19:02.162Z,70.40
2022-12-31T05:21:29.711Z,68.97
2022-12-31T05:23:57.210Z,74.90
2022-12-31T05:26:24.667Z,74.10
2022-12-31T05:28:52.380Z,73.78
2022-12-31T05:31:20.156Z,73.15
2022-12-31T05:33:48.688Z,76.45
2022-12-31T05:36:16.193Z,78.07
2022-12-31T05:38:43.772Z,75.47
2022-12-31T05:41:11.712Z,80.40
2022-12-31T05:43:39.302Z,83.82
2022-12-31T05:46:06.863Z,72.90
2022-12-31T05:48:34.383Z,74.18
2022-12-31T05:51:01.911Z,74.07
2022-12-31T05:53:29.672Z,71.30
2022-12-31T05:55:57.248Z,73.47
2022-12-31T05:58:24.767Z,76.40
2022-12-31T06:00:52.745Z,75.03
2022-12-31T06:03:20.400Z,79.10
2022-12-31T06:05:48.013Z,71.47
2022-12-31T06:08:15.623Z,75.40
2022-12-31T06:10:45.822Z,71.38
2022-12-31T06:13:13.389Z,72.43
2022-12-31T06:15:40.937Z,72.35
2022-12-31T06:18:08.789Z,71.55
2022-12-31T06:20:37.807Z,73.30
2022-12-31T06:23:05.863Z,76.80
2022-12-31T06:25:35.684Z,79.55
2022-12-31T06:28:04.432Z,68.88
2022-12-31T06:30:32.441Z,63.42
2022-12-31T06:32:59.953Z,70.55
2022-12-31T06:35:27.463Z,66.32
2022-12-31T06:37:54.999Z,79.20
2022-12-31T06:40:22.531Z,72.65
2022-12-31T06:42:56.034Z,62.55
2022-12-31T06:45:28.262Z,67.43
2022-12-31T06:47:55.807Z,66.13
2022-12-31T06:50:23.359Z,81.00
2022-12-31T06:52:51.223Z,77.60
2022-12-31T06:55:19.096Z,62.65
2022-12-31T06:57:47.189Z,61.10
2022-12-31T07:00:15.413Z,59.30
2022-12-31T07:03:08.056Z,56.05
2022-12-31T07:05:50.664Z,58.13
2022-12-31T07:09:02.750Z,70.22
2022-12-31T07:11:44.893Z,68.75
2022-12-31T07:14:31.099Z,58.20
2022-12-31T07:17:23.506Z,60.95
2022-12-31T07:20:07.768Z,63.67
2022-12-31T07:22:36.713Z,65.93
2022-12-31T07:25:06.612Z,64.32
2022-12-31T07:27:42.843Z,70.05
2022-12-31T07:30:21.463Z,72.32
2022-12-31T07:33:26.183Z,72.13
2022-12-31T07:36:12.443Z,68.97
2022-12-31T07:38:53.182Z,90.13
2022-12-31T07:41:29.715Z,87.50
2022-12-31T07:43:57.889Z,89.85
2022-12-31T07:46:43.030Z,77.85
2022-12-31T07:49:14.213Z,74.25
2022-12-31T07:51:42.280Z,74.50
2022-12-31T07:54:13.874Z,96.63
2022-12-31T07:56:43.082Z,86.00
2022-12-31T07:59:24.563Z,75.75
2022-12-31T08:02:05.094Z,87.78
2022-12-31T08:04:42.503Z,102.38
2022-12-31T08:07:15.681Z,91.50
2022-12-31T08:09:45.942Z,77.22
2022-12-31T08:12:14.244Z,77.40
2022-12-31T08:14:47.227Z,71.90
2022-12-31T08:17:17.871Z,61.10
2022-12-31T08:19:46.289Z,158.90
2022-12-31T08:22:26.108Z,68.50
2022-12-31T08:25:21.212Z,112.07
2022-12-31T08:28:09.068Z,260.20
2022-12-31T08:31:04.363Z,161.07
2022-12-31T08:36:27.776Z,173.73
2022-12-31T08:39:07.668Z,151.25
2022-12-31T08:41:47.762Z,145.50
2022-12-31T08:44:33.691Z,92.88
2022-12-31T08:47:23.091Z,124.88
2022-12-31T08:49:51.004Z,104.15
2022-12-31T08:52:26.814Z,69.13
2022-12-31T08:54:55.020Z,78.13
2022-12-31T08:57:42.567Z,62.33
2022-12-31T09:00:16.906Z,61.20
2022-12-31T09:03:08.683Z,62.17
2022-12-31T09:06:00.468Z,56.65
2022-12-31T09:08:52.652Z,55.10
2022-12-31T09:11:34.011Z,58.78
2022-12-31T09:14:25.811Z,61.92
2022-12-31T09:16:56.562Z,113.18
2022-12-31T09:19:24.134Z,417.20
2022-12-31T09:21:51.995Z,252.27
2022-12-31T09:24:19.834Z,74.63
2022-12-31T09:26:56.152Z,101.78
2022-12-31T09:29:29.739Z,90.95
2022-12-31T09:32:20.880Z,62.15
2022-12-31T09:34:57.280Z,59.05
2022-12-31T09:37:30.965Z,57.97
2022-12-31T09:40:28.662Z,57.10
2022-12-31T09:43:14.560Z,56.17
2022-12-31T09:46:04.872Z,56.55
2022-12-31T09:49:03.676Z,53.65
2022-12-31T09:51:38.239Z,50.72
2022-12-31T09:54:17.641Z,47.22
2022-12-31T09:57:17.336Z,46.17
2022-12-31T10:00:10.968Z,45.30
2022-12-31T10:03:08.650Z,42.10
2022-12-31T10:09:01.563Z,41.45
2022-12-31T10:11:32.031Z,40.25
2022-12-31T10:14:33.441Z,35.47
2022-12-31T10:17:16.744Z,44.63
2022-12-31T10:20:05.752Z,37.03
2022-12-31T10:23:04.636Z,36.00
2022-12-31T10:25:50.392Z,42.60
2022-12-31T10:28:19.052Z,34.13
2022-12-31T10:31:03.113Z,37.33
2022-12-31T10:33:30.627Z,32.38
2022-12-31T10:36:21.040Z,100.40
2022-12-31T10:38:48.489Z,63.50
2022-12-31T10:41:25.029Z,44.45
2022-12-31T10:44:19.889Z,55.33
2022-12-31T10:47:19.407Z,124.57
2022-12-31T10:49:56.060Z,64.07
2022-12-31T10:52:45.492Z,36.92
2022-12-31T10:55:39.374Z,95.38
2022-12-31T10:58:21.991Z,41.45
2022-12-31T11:01:18.801Z,37.05
2022-12-31T11:04:20.454Z,51.97
2022-12-31T11:07:19.634Z,54.17
2022-12-31T11:10:20.401Z,37.80
2022-12-31T11:13:09.401Z,44.33
2022-12-31T11:15:42.038Z,53.97
2022-12-31T11:18:12.800Z,48.85
2022-12-31T11:20:56.049Z,44.88
2022-12-31T11:23:38.457Z,42.47
2022-12-31T11:26:55.425Z,63.45
2022-12-31T11:29:50.793Z,71.75
2022-12-31T11:32:45.281Z,39.50
2022-12-31T11:35:22.271Z,34.10
2022-12-31T11:38:15.017Z,32.55
2022-12-31T11:40:48.076Z,29.23
2022-12-31T11:43:15.459Z,27.63
2022-12-31T11:45:50.724Z,26.42
2022-12-31T11:48:30.578Z,28.80
2022-12-31T11:51:16.550Z,26.17
2022-12-31T11:54:01.231Z,27.92
2022-12-31T11:56:37.412Z,25.58
2022-12-31T11:59:18.848Z,25.65
2022-12-31T12:02:04.440Z,24.75
2022-12-31T12:04:32.022Z,24.67
2022-12-31T12:06:59.723Z,24.70
2022-12-31T12:09:30.228Z,25.13
2022-12-31T12:12:03.655Z,25.88
2022-12-31T12:14:35.273Z,24.20
2022-12-31T12:17:06.523Z,23.48
2022-12-31T12:19:36.106Z,22.65
2022-12-31T12:22:19.891Z,22.60
2022-12-31T12:24:56.936Z,22.30
2022-12-31T12:27:29.274Z,35.15
2022-12-31T12:29:57.486Z,35.70
2022-12-31T12:32:26.954Z,21.80
2022-12-31T12:34:54.461Z,20.83
2022-12-31T12:37:24.745Z,33.55
2022-12-31T12:40:02.327Z,26.33
2022-12-31T12:42:30.452Z,42.05
2022-12-31T12:45:35.637Z,19.17
2022-12-31T12:48:16.653Z,16.92
2022-12-31T12:50:47.470Z,17.85
2022-12-31T12:53:32.696Z,17.42
2022-12-31T12:56:18.875Z,34.78
2022-12-31T12:58:49.423Z,25.00
2022-12-31T13:01:34.956Z,20.63
2022-12-31T13:04:39.768Z,17.40
2022-12-31T13:07:18.988Z,27.63
2022-12-31T13:09:59.795Z,23.02
2022-12-31T13:12:27.323Z,18.88
2022-12-31T13:15:11.043Z,97.20
2022-12-31T13:17:48.289Z,50.95
2022-12-31T13:20:28.890Z,61.53
2022-12-31T13:23:36.274Z,18.98
2022-12-31T13:26:20.532Z,41.55
2022-12-31T13:28:50.824Z,38.58
2022-12-31T13:31:24.876Z,34.22
2022-12-31T13:34:15.491Z,31.33
2022-12-31T13:36:46.027Z,21.63
2022-12-31T13:39:41.905Z,17.00
2022-12-31T13:42:28.765Z,18.20
2022-12-31T13:45:02.375Z,17.15
2022-12-31T13:47:40.864Z,102.72
2022-12-31T13:50:26.842Z,53.80
2022-12-31T13:53:21.469Z,58.83
2022-12-31T13:56:02.058Z,21.20
2022-12-31T13:58:35.318Z,23.77
2022-12-31T14:01:14.775Z,20.10
2022-12-31T14:03:59.394Z,20.00
2022-12-31T14:06:38.729Z,20.30
2022-12-31T14:09:08.114Z,25.00
2022-12-31T14:12:06.356Z,21.33
2022-12-31T14:14:58.356Z,24.10
2022-12-31T14:17:59.867Z,26.23
2022-12-31T14:20:27.573Z,34.75
2022-12-31T14:22:58.020Z,35.33
2022-12-31T14:25:31.772Z,56.17
2022-12-31T14:28:02.577Z,49.88
2022-12-31T14:30:36.186Z,31.58
2022-12-31T14:33:17.423Z,35.63
2022-12-31T14:36:10.761Z,47.22
2022-12-31T14:38:38.507Z,43.42
2022-12-31T14:41:27.256Z,63.30
2022-12-31T14:43:54.694Z,52.80
2022-12-31T14:46:31.187Z,50.03
2022-12-31T14:49:17.025Z,52.70
2022-12-31T14:51:44.947Z,43.72
2022-12-31T14:54:29.362Z,44.65
2022-12-31T14:56:58.005Z,83.15
2022-12-31T14:59:35.649Z,67.13
2022-12-31T15:02:30.179Z,60.78
2022-12-31T15:05:15.845Z,59.10
2022-12-31T15:07:49.267Z,44.15
2022-12-31T15:12:59.996Z,55.25
2022-12-31T15:15:59.626Z,59.50
2022-12-31T15:18:39.252Z,50.58
2022-12-31T15:21:20.710Z,136.07
2022-12-31T15:23:49.834Z,78.18
2022-12-31T15:26:24.653Z,37.45
2022-12-31T15:29:05.348Z,40.00
2022-12-31T15:31:37.562Z,39.80
2022-12-31T15:34:24.306Z,46.30
2022-12-31T15:36:54.839Z,33.22
2022-12-31T15:39:42.778Z,35.88
2022-12-31T15:42:42.402Z,36.90
2022-12-31T15:45:37.412Z,36.58
2022-12-31T15:48:19.487Z,37.85
2022-12-31T15:50:51.261Z,37.13
2022-12-31T15:53:38.538Z,36.42
2022-12-31T15:56:08.451Z,36.55
2022-12-31T15:58:36.707Z,39.17
2022-12-31T16:01:20.996Z,41.17
2022-12-31T16:04:04.344Z,40.97
2022-12-31T16:06:37.023Z,39.22
2022-12-31T16:09:09.968Z,37.80
2022-12-31T16:11:41.767Z,36.70
2022-12-31T16:14:18.496Z,37.85
2022-12-31T16:16:58.332Z,40.65
2022-12-31T16:19:50.057Z,35.88
2022-12-31T16:22:38.606Z,36.55
2022-12-31T16:27:56.088Z,36.45
2022-12-31T16:30:28.073Z,41.92
2022-12-31T16:33:00.608Z,34.92
2022-12-31T16:35:34.128Z,33.72
2022-12-31T16:38:01.519Z,36.78
2022-12-31T16:40:29.361Z,39.63
2022-12-31T16:43:00.219Z,35.60
2022-12-31T16:45:32.107Z,36.03
2022-12-31T16:48:17.262Z,35.05
2022-12-31T16:50:47.733Z,33.80
2022-12-31T16:53:19.643Z,37.10
2022-12-31T16:56:02.036Z,30.45
2022-12-31T16:58:33.453Z,30.40
2022-12-31T17:01:23.265Z,38.05
2022-12-31T17:03:58.326Z,37.15
2022-12-31T17:06:28.160Z,32.67
2022-12-31T17:08:56.069Z,31.85
2022-12-31T17:11:39.256Z,37.97
2022-12-31T17:14:09.684Z,32.95
2022-12-31T17:17:03.480Z,36.90
2022-12-31T17:19:38.884Z,35.93
2022-12-31T17:22:13.832Z,40.25
2022-12-31T17:24:42.248Z,49.75
2022-12-31T17:27:10.448Z,43.35
2022-12-31T17:29:38.864Z,33.03
2022-12-31T17:32:31.220Z,29.42
2022-12-31T17:34:58.836Z,32.45
2022-12-31T17:37:31.485Z,27.75
2022-12-31T17:40:40.560Z,25.73
2022-12-31T17:42:51.429Z,24.23
2022-12-31T17:45:21.533Z,25.08
2022-12-31T17:47:52.000Z,28.30
2022-12-31T17:50:20.970Z,25.70
2022-12-31T17:52:48.908Z,24.58
2022-12-31T17:55:16.588Z,26.58
2022-12-31T17:58:05.959Z,28.35
2022-12-31T18:00:36.777Z,28.85
2022-12-31T18:03:04.481Z,36.97
2022-12-31T18:05:32.050Z,36.75
2022-12-31T18:07:59.648Z,46.13
2022-12-31T18:10:29.492Z,40.00
2022-12-31T18:13:01.849Z,82.45
2022-12-31T18:15:29.422Z,133.73
2022-12-31T18:17:57.121Z,240.68
2022-12-31T18:20:25.748Z,138.77
2022-12-31T18:22:53.330Z,87.50
2022-12-31T18:25:24.031Z,48.00
2022-12-31T18:27:52.533Z,34.97
2022-12-31T18:30:20.094Z,127.10
2022-12-31T18:32:47.783Z,51.47
2022-12-31T18:36:06.422Z,26.35
2022-12-31T18:38:14.720Z,70.10
2022-12-31T18:40:46.469Z,153.85
2022-12-31T18:43:17.427Z,160.93
2022-12-31T18:45:46.392Z,68.57
2022-12-31T18:48:14.550Z,30.52
2022-12-31T18:50:42.319Z,28.48
2022-12-31T18:53:22.264Z,32.47
2022-12-31T18:55:57.571Z,36.55
2022-12-31T18:58:25.053Z,45.45
2022-12-31T19:00:52.750Z,41.47
2022-12-31T19:03:23.333Z,38.58
2022-12-31T19:05:52.136Z,63.22
2022-12-31T19:08:21.771Z,93.35
2022-12-31T19:10:51.442Z,82.90
2022-12-31T19:13:20.201Z,48.33
2022-12-31T19:15:50.223Z,31.65
2022-12-31T19:18:17.953Z,49.25
2022-12-31T19:20:45.967Z,52.17
2022-12-31T19:23:19.577Z,32.47
2022-12-31T19:25:48.018Z,27.50
2022-12-31T19:28:18.325Z,111.07
2022-12-31T19:30:46.695Z,77.45
2022-12-31T19:33:14.947Z,90.95
2022-12-31T19:35:43.393Z,167.00
2022-12-31T19:38:18.933Z,44.35
2022-12-31T19:40:47.461Z,83.70
2022-12-31T19:43:18.875Z,48.78
2022-12-31T19:45:47.276Z,44.85
2022-12-31T19:48:18.469Z,30.77
2022-12-31T19:50:48.818Z,29.52
2022-12-31T19:53:22.333Z,27.67
2022-12-31T19:55:50.638Z,28.15
2022-12-31T19:58:21.431Z,129.43
2022-12-31T20:00:55.674Z,112.68
2022-12-31T20:03:25.083Z,74.38
2022-12-31T20:06:05.623Z,56.13
2022-12-31T20:08:34.547Z,35.22
2022-12-31T20:11:16.010Z,29.70
2022-12-31T20:13:43.763Z,31.05
2022-12-31T20:16:17.173Z,37.30
2022-12-31T20:18:46.800Z,31.50
2022-12-31T20:21:20.068Z,30.08
2022-12-31T20:23:51.865Z,37.03
2022-12-31T20:26:20.366Z,37.90
2022-12-31T20:28:48.694Z,37.75
2022-12-31T20:31:23.527Z,39.60
2022-12-31T20:33:53.656Z,35.88
2022-12-31T20:36:22.257Z,25.35
2022-12-31T20:38:50.329Z,25.77
2022-12-31T20:41:20.462Z,27.20
2022-12-31T20:43:50.968Z,53.70
2022-12-31T20:46:25.807Z,46.50
2022-12-31T20:48:56.063Z,28.63
2022-12-31T20:51:24.482Z,49.00
2022-12-31T20:53:55.478Z,48.17
2022-12-31T20:56:24.774Z,49.70
2022-12-31T20:58:52.343Z,43.85
2022-12-31T21:01:20.684Z,71.85
2022-12-31T21:04:05.964Z,77.70
2022-12-31T21:06:35.705Z,62.22
2022-12-31T21:09:05.838Z,38.85
2022-12-31T21:11:52.235Z,30.90
2022-12-31T21:14:20.065Z,27.40
2022-12-31T21:16:47.659Z,59.83
2022-12-31T21:19:15.810Z,46.10
2022-12-31T21:21:48.109Z,32.15
2022-12-31T21:24:21.801Z,24.98
2022-12-31T21:26:54.364Z,24.35
2022-12-31T21:29:21.894Z,26.42
2022-12-31T21:31:49.775Z,27.70
2022-12-31T21:34:17.348Z,27.20
2022-12-31T21:36:47.023Z,29.73
2022-12-31T21:39:14.669Z,27.23
2022-12-31T21:41:51.091Z,29.67
2022-12-31T21:44:26.964Z,33.53
2022-12-31T21:47:35.410Z,34.33
2022-12-31T21:50:05.307Z,43.45
2022-12-31T21:52:35.072Z,35.40
2022-12-31T21:55:25.292Z,31.85
2022-12-31T22:01:09.546Z,63.85
2022-12-31T22:03:37.276Z,49.13
2022-12-31T22:06:12.792Z,36.15
2022-12-31T22:08:41.810Z,53.47
2022-12-31T22:11:10.695Z,37.67
2022-12-31T22:13:38.604Z,28.02
2022-12-31T22:16:09.809Z,25.00
2022-12-31T22:18:39.332Z,23.33
2022-12-31T22:21:15.698Z,24.83
2022-12-31T22:23:48.630Z,31.27
2022-12-31T22:26:18.451Z,34.67
2022-12-31T22:28:46.625Z,34.47
2022-12-31T22:31:24.575Z,33.10
2022-12-31T22:33:52.560Z,38.42
2022-12-31T22:36:22.523Z,37.92
2022-12-31T22:38:55.696Z,30.77
2022-12-31T22:41:24.583Z,28.83
2022-12-31T22:44:00.503Z,27.33
2022-12-31T22:46:30.692Z,28.42
2022-12-31T22:48:59.677Z,29.17
2022-12-31T22:51:55.963Z,40.15
2022-12-31T22:54:15.198Z,50.33
2022-12-31T22:56:42.806Z,42.08
2022-12-31T22:59:11.808Z,44.45
2022-12-31T23:01:39.466Z,43.33
2022-12-31T23:04:07.063Z,41.08
2022-12-31T23:06:43.379Z,42.95
2022-12-31T23:09:30.975Z,46.78
2022-12-31T23:11:59.186Z,58.88
2022-12-31T23:14:46.434Z,59.63
2022-12-31T23:17:39.180Z,65.00
2022-12-31T23:20:29.461Z,44.28
2022-12-31T23:23:26.341Z,38.10
2022-12-31T23:26:01.223Z,34.90
2022-12-31T23:28:29.014Z,38.50
2022-12-31T23:30:56.653Z,36.92
2022-12-31T23:33:26.121Z,36.78
2022-12-31T23:36:07.499Z,41.25
2022-12-31T23:38:36.923Z,57.08
2022-12-31T23:41:16.048Z,70.72
2022-12-31T23:43:44.170Z,204.80
2022-12-31T23:46:13.032Z,239.80
2022-12-31T23:48:40.802Z,209.27
2022-12-31T23:51:08.481Z,142.77
2022-12-31T23:53:39.695Z,135.40
2022-12-31T23:56:20.872Z,98.97
2022-12-31T23:58:58.138Z,129.95
